Data for 01/12/2018

Time Sea-Level Adjusted Pressure Absolute Pressure Temperature Relative Humidity Dew Point   
(mb) (inHg) (mb) (inHg) (C) (F) (%) (C) (F)
00:05 1012 29.88 841 24.83 -0.1 31.7 76 -3.9 25
00:10 1012 29.88 841 24.83 0.1 32.3 77 -3.5 25.8
00:15 1012 29.88 841 24.83 0.2 32.3 79 -3.1 26.4
00:20 1012 29.88 841 24.83 -0.1 31.8 80 -3.2 26.3
00:25 1012 29.88 842 24.86 -0.1 31.9 80 -3 26.5
00:30 1012 29.88 842 24.86 0.1 32.3 80 -2.9 26.8
00:35 1013 29.91 842 24.86 0.3 32.6 79 -2.8 26.9
00:40 1013 29.91 842 24.86 0.7 33.2 78 -2.8 27
00:45 1013 29.91 842 24.86 0.7 33.3 77 -2.9 26.8
00:50 1013 29.91 842 24.86 0.7 33.3 78 -2.7 27.1
00:55 1013 29.91 842 24.86 0.5 32.9 78 -2.8 26.9
01:00 1013 29.91 842 24.86 0.5 32.9 78 -2.8 26.9
01:05 1013 29.91 842 24.86 0.5 32.9 79 -2.8 26.9
01:10 1013 29.91 842 24.86 0.5 33 77 -3 26.6
01:15 1013 29.91 842 24.86 0.6 33.1 77 -2.9 26.8
01:20 1013 29.91 842 24.86 0.5 32.9 79 -2.8 27
01:25 1013 29.91 842 24.86 0.4 32.7 80 -2.7 27.1
01:30 1013 29.91 842 24.86 0.1 32.3 81 -2.7 27.1
01:35 1013 29.91 842 24.86 -0 31.9 81 -2.9 26.8
01:40 1013 29.91 842 24.86 -0.2 31.7 81 -3.1 26.5
01:45 1013 29.91 843 24.89 -0.1 31.7 79 -3.3 26.1
01:50 1013 29.91 843 24.89 -0.1 31.9 80 -3.1 26.4
01:55 1014 29.94 843 24.89 -0.2 31.7 80 -3.3 26.1
02:00 1014 29.94 843 24.89 -0.2 31.7 79 -3.5 25.7
02:05 1014 29.94 843 24.89 -0.1 31.8 78 -3.5 25.7
02:10 1014 29.94 843 24.89 -0 31.9 77 -3.5 25.6
02:15 1014 29.94 843 24.89 0.1 32.1 76 -3.7 25.4
02:20 1014 29.94 843 24.89 0.2 32.3 75 -3.7 25.4
02:25 1014 29.94 843 24.89 0.3 32.6 73 -4 24.9
02:30 1014 29.94 844 24.92 0.7 33.2 72 -3.7 25.3
02:35 1015 29.97 844 24.92 0.8 33.4 71 -4 24.9
02:40 1015 29.97 844 24.92 1.1 34 70 -3.8 25.2
02:45 1015 29.97 844 24.92 0.7 33.3 79 -2.5 27.5
02:50 1015 29.97 844 24.92 0 32.1 79 -3.2 26.3
02:55 1015 29.97 844 24.92 0.1 32.2 75 -3.8 25.2
03:00 1015 29.97 844 24.92 0.6 33 75 -3.3 26
03:05 1015 29.97 845 24.95 0.6 33 76 -3.3 26.1
03:10 1015 29.97 845 24.95 0.4 32.7 77 -3.1 26.4
03:15 1015 29.97 845 24.95 -0.1 31.8 78 -3.4 25.9
03:20 1015 29.97 845 24.95 -0.3 31.5 78 -3.6 25.6
03:25 1016 30 845 24.95 -0.2 31.6 78 -3.6 25.6
03:30 1016 30 845 24.95 -0.3 31.5 79 -3.6 25.6
03:35 1016 30 845 24.95 -0.5 31.2 79 -3.6 25.5
03:40 1016 30 845 24.95 -0.6 31 80 -3.6 25.4
03:45 1016 30 845 24.95 -0.7 30.7 80 -3.7 25.4
03:50 1016 30 845 24.95 -0.8 30.6 80 -3.7 25.3
03:55 1016 30 845 24.95 -0.9 30.4 81 -3.7 25.4
04:00 1016 30 845 24.95 -1 30.2 82 -3.7 25.4
04:05 1016 30 845 24.95 -1.1 30 82 -3.8 25.2
04:10 1016 30 845 24.95 -1.2 29.8 83 -3.8 25.2
04:15 1016 30 845 24.95 -1.3 29.7 83 -3.8 25.2
04:20 1016 30 845 24.95 -1.3 29.6 83 -3.8 25.1
04:25 1016 30 845 24.95 -1.3 29.6 83 -3.9 25
04:30 1016 30 845 24.95 -1.3 29.6 83 -3.8 25.2
04:35 1016 30 845 24.95 -1.3 29.7 83 -3.8 25.1
04:40 1016 30 845 24.95 -1.2 29.8 82 -3.9 25
04:45 1016 30 845 24.95 -1.3 29.7 83 -3.9 25
04:50 1016 30 846 24.98 -1.5 29.3 84 -3.9 25
04:55 1017 30.03 846 24.98 -1.8 28.8 85 -4 24.8
05:00 1017 30.03 846 24.98 -2.2 28 86 -4.3 24.2
05:05 1017 30.03 846 24.98 -2.6 27.4 86 -4.5 23.8
05:10 1017 30.03 846 24.98 -2.8 26.9 87 -4.7 23.6
05:15 1017 30.03 846 24.98 -3 26.7 88 -4.7 23.5
05:20 1017 30.03 846 24.98 -3.2 26.3 88 -4.8 23.3
05:25 1017 30.03 846 24.98 -3.3 26.1 89 -4.9 23.3
05:30 1017 30.03 847 25.01 -3.2 26.2 89 -4.8 23.3
05:35 1018 30.06 847 25.01 -3.3 26.1 88 -5 23
05:40 1018 30.06 847 25.01 -3.4 25.9 87 -5.3 22.5
05:45 1018 30.06 847 25.01 -3.7 25.4 86 -5.6 21.9
05:50 1018 30.06 847 25.01 -3.7 25.3 85 -5.8 21.5
05:55 1018 30.06 847 25.01 -4 24.9 87 -5.9 21.4
06:00 1018 30.06 847 25.01 -3.9 24.9 86 -5.9 21.4
06:05 1018 30.06 847 25.01 -3.9 25.1 87 -5.8 21.6
06:10 1018 30.06 847 25.01 -3.8 25.2 88 -5.5 22
06:15 1018 30.06 847 25.01 -3.8 25.1 88 -5.5 22
06:20 1018 30.06 848 25.04 -3.7 25.3 88 -5.4 22.3
06:25 1018 30.06 848 25.04 -3.4 25.9 87 -5.3 22.5
06:30 1018 30.06 848 25.04 -3.2 26.3 87 -5 22.9
06:35 1019 30.09 848 25.04 -2.9 26.8 87 -4.7 23.5
06:40 1019 30.09 848 25.04 -2.8 27 87 -4.7 23.5
06:45 1019 30.09 848 25.04 -2.7 27.1 86 -4.7 23.5
06:50 1019 30.09 848 25.04 -2.7 27.1 87 -4.7 23.6
06:55 1019 30.09 848 25.04 -2.6 27.3 86 -4.6 23.7
07:00 1019 30.09 848 25.04 -2.6 27.3 84 -4.9 23.2
07:05 1019 30.09 848 25.04 -3.4 26 86 -5.3 22.4
07:10 1019 30.09 848 25.04 -3.9 25 87 -5.8 21.6
07:15 1019 30.09 848 25.04 -4.3 24.3 88 -6 21.1
07:20 1019 30.09 849 25.07 -4.4 24 88 -6.1 21
07:25 1019 30.09 849 25.07 -4.4 24.1 88 -6.1 21.1
07:30 1019 30.09 849 25.07 -4.4 24.1 88 -6.1 21
07:35 1020 30.12 849 25.07 -4.4 24.2 88 -6.1 21
07:40 1020 30.12 849 25.07 -4.3 24.2 88 -6 21.2
07:45 1020 30.12 849 25.07 -4.2 24.4 88 -6 21.2
07:50 1020 30.12 849 25.07 -4.2 24.5 88 -5.9 21.4
07:55 1020 30.12 849 25.07 -4.1 24.7 88 -5.8 21.6
08:00 1020 30.12 849 25.07 -4 24.7 88 -5.7 21.8
08:05 1020 30.12 849 25.07 -3.9 25 89 -5.5 22
08:10 1020 30.12 849 25.07 -3.7 25.4 88 -5.4 22.3
08:15 1020 30.12 849 25.07 -3.6 25.5 88 -5.4 22.3
08:20 1020 30.12 849 25.07 -3.5 25.7 88 -5.3 22.5
08:25 1020 30.12 849 25.07 -3.3 26 87 -5.2 22.6
08:30 1020 30.12 850 25.1 -3.1 26.3 86 -5.1 22.8
08:35 1020 30.12 850 25.1 -3 26.6 85 -5.2 22.7
08:40 1020 30.12 850 25.1 -3.1 26.3 86 -5.2 22.6
08:45 1021 30.15 850 25.1 -3.2 26.2 85 -5.3 22.4
08:50 1020 30.12 850 25.1 -3.1 26.4 85 -5.3 22.5
08:55 1021 30.15 850 25.1 -3 26.7 84 -5.3 22.4
09:00 1021 30.15 850 25.1 -2.8 27 83 -5.2 22.7
09:05 1021 30.15 850 25.1 -2.4 27.6 83 -4.9 23.2
09:10 1021 30.15 850 25.1 -2.3 27.9 83 -4.8 23.3
09:15 1021 30.15 850 25.1 -2.4 27.6 84 -4.8 23.4
09:20 1021 30.15 850 25.1 -2.6 27.4 85 -4.8 23.4
09:25 1021 30.15 850 25.1 -2.4 27.6 84 -4.8 23.3
09:30 1021 30.15 851 25.13 -2.2 28 84 -4.7 23.6
09:35 1021 30.15 851 25.13 -1.8 28.8 81 -4.5 23.8
09:40 1022 30.18 851 25.13 -1.2 29.8 79 -4.4 24.1
09:45 1022 30.18 851 25.13 -0.9 30.4 79 -4.1 24.6
09:50 1022 30.18 851 25.13 -1.1 29.9 77 -4.7 23.5
09:55 1022 30.18 851 25.13 -2.2 28.1 79 -5.3 22.4
10:00 1022 30.18 851 25.13 -2.8 27 79 -5.9 21.3
10:05 1022 30.18 851 25.13 -3.8 25.2 83 -6.3 20.7
10:10 1022 30.18 852 25.16 -4.1 24.6 79 -7.3 18.9
10:15 1023 30.21 852 25.16 -4.7 23.6 82 -7.2 19
10:20 1023 30.21 852 25.16 -4.6 23.6 82 -7.3 18.8
10:25 1023 30.21 852 25.16 -4.6 23.7 81 -7.3 18.8
10:30 1023 30.21 852 25.16 -4.6 23.7 80 -7.5 18.4
10:35 1023 30.21 852 25.16 -4.7 23.6 79 -7.7 18.1
10:40 1023 30.21 852 25.16 -4.6 23.6 80 -7.7 18.2
10:45 1023 30.21 853 25.19 -4.6 23.7 81 -7.5 18.6
10:50 1023 30.21 853 25.19 -4.1 24.6 77 -7.6 18.3
10:55 1023 30.21 853 25.19 -4.6 23.8 81 -7.4 18.7
11:00 1023 30.21 853 25.19 -4.6 23.6 81 -7.4 18.7
11:05 1023 30.21 852 25.16 -4.7 23.6 83 -7.2 19.1
11:10 1023 30.21 852 25.16 -5 23.1 84 -7.3 18.9
11:15 1023 30.21 852 25.16 -4.8 23.3 84 -7.2 19
11:20 1023 30.21 852 25.16 -4.6 23.7 84 -6.9 19.5
11:25 1023 30.21 852 25.16 -4.1 24.5 84 -6.5 20.3
11:30 1023 30.21 852 25.16 -3.3 26.1 81 -6.1 21
11:35 1023 30.21 852 25.16 -2.8 27 79 -5.8 21.5
11:40 1022 30.18 852 25.16 -2.2 28 78 -5.5 22.1
11:45 1022 30.18 852 25.16 -0.9 30.4 76 -4.6 23.7
11:50 1022 30.18 851 25.13 0.9 33.7 72 -3.6 25.6
11:55 1022 30.18 851 25.13 2.4 36.2 62 -4.2 24.5
12:00 1022 30.18 851 25.13 1.1 34 68 -4.2 24.4
12:05 1022 30.18 851 25.13 0.5 32.9 70 -4.3 24.3
12:10 1022 30.18 851 25.13 1.3 34.3 68 -4 24.8
12:15 1022 30.18 852 25.16 1.9 35.4 68 -3.5 25.8
12:20 1022 30.18 852 25.16 2.6 36.6 63 -3.9 25
12:25 1022 30.18 852 25.16 3.5 38.3 61 -3.3 26.1
12:30 1023 30.21 852 25.16 4.2 39.6 60 -2.9 26.8
12:35 1023 30.21 852 25.16 4.2 39.5 59 -3.1 26.4
12:40 1023 30.21 852 25.16 3.4 38.2 61 -3.4 25.9
12:45 1023 30.21 852 25.16 3.5 38.3 60 -3.5 25.7
12:50 1023 30.21 852 25.16 3.7 38.6 61 -3.1 26.4
12:55 1023 30.21 852 25.16 3.6 38.4 61 -3.2 26.3
13:00 1023 30.21 852 25.16 3.4 38 62 -3.1 26.3
13:05 1023 30.21 852 25.16 2.9 37.3 63 -3.3 26
13:10 1023 30.21 852 25.16 2.8 37 64 -3.3 26
13:15 1023 30.21 852 25.16 2.5 36.5 65 -3.4 25.8
13:20 1023 30.21 852 25.16 2.6 36.6 65 -3.4 26
13:25 1023 30.21 852 25.16 2.6 36.7 65 -3.3 26
13:30 1023 30.21 852 25.16 2.7 36.9 65 -3.3 26.1
13:35 1023 30.21 852 25.16 2.8 37 64 -3.3 26
13:40 1023 30.21 852 25.16 2.8 37.1 64 -3.4 25.9
13:45 1023 30.21 852 25.16 2.9 37.1 63 -3.4 25.9
13:50 1023 30.21 852 25.16 2.9 37.2 64 -3.3 26.1
13:55 1023 30.21 852 25.16 3 37.4 62 -3.5 25.7
14:00 1023 30.21 852 25.16 3 37.5 62 -3.5 25.7
14:05 1023 30.21 852 25.16 2.9 37.1 64 -3.3 26
14:10 1023 30.21 852 25.16 2.8 37 64 -3.5 25.8
14:15 1023 30.21 852 25.16 2.7 36.9 64 -3.4 25.8
14:20 1023 30.21 852 25.16 2.6 36.7 64 -3.5 25.7
14:25 1023 30.21 852 25.16 2.6 36.6 64 -3.5 25.7
14:30 1023 30.21 853 25.19 2.7 36.8 65 -3.3 26.1
14:35 1023 30.21 853 25.19 2.6 36.6 67 -3 26.5
14:40 1023 30.21 853 25.19 2.5 36.4 66 -3.3 26
14:45 1023 30.21 853 25.19 2.1 35.8 68 -3.2 26.2
14:50 1023 30.21 852 25.16 1.9 35.4 68 -3.3 26.1
14:55 1023 30.21 852 25.16 2 35.7 68 -3.2 26.2
15:00 1023 30.21 852 25.16 2.4 36.3 67 -3.2 26.3
15:05 1023 30.21 852 25.16 2.7 36.9 64 -3.3 26
15:10 1023 30.21 853 25.19 3.2 37.8 60 -3.7 25.3
15:15 1023 30.21 853 25.19 3.6 38.4 60 -3.5 25.7
15:20 1023 30.21 853 25.19 3.6 38.5 62 -3.1 26.5
15:25 1023 30.21 853 25.19 3.4 38.2 62 -3 26.5
15:30 1023 30.21 853 25.19 3.3 38 62 -3.2 26.3
15:35 1023 30.21 853 25.19 3.4 38.1 64 -2.9 26.8
15:40 1023 30.21 853 25.19 3.4 38 64 -2.9 26.8
15:45 1023 30.21 853 25.19 3.3 38 65 -2.7 27.1
15:50 1024 30.24 853 25.19 3.3 37.9 63 -3 26.6
15:55 1024 30.24 853 25.19 3.3 38 62 -3.2 26.3
16:00 1024 30.24 853 25.19 3.5 38.2 63 -3 26.6
16:05 1024 30.24 853 25.19 3.5 38.3 62 -3.1 26.4
16:10 1024 30.24 853 25.19 3.5 38.4 63 -2.8 27
16:15 1024 30.24 853 25.19 3.4 38.2 64 -2.8 27
16:20 1024 30.24 853 25.19 3.4 38.2 63 -2.9 26.9
16:25 1024 30.24 853 25.19 3.4 38.2 62 -3.2 26.3
16:30 1024 30.24 853 25.19 3.4 38.2 64 -2.8 27
16:35 1024 30.24 853 25.19 3.3 37.9 64 -2.8 27
16:40 1024 30.24 853 25.19 3.2 37.7 64 -2.9 26.8
16:45 1024 30.24 853 25.19 3.1 37.6 65 -2.7 27.1
16:50 1024 30.24 853 25.19 3 37.4 67 -2.6 27.4
16:55 1024 30.24 853 25.19 2.8 37 67 -2.7 27.1
17:00 1024 30.24 853 25.19 2.7 36.9 68 -2.6 27.2
17:05 1024 30.24 853 25.19 2.7 36.8 68 -2.6 27.4
17:10 1024 30.24 853 25.19 2.5 36.5 69 -2.7 27.2
17:15 1024 30.24 853 25.19 2.5 36.6 68 -2.8 27
17:20 1024 30.24 854 25.22 2.5 36.5 70 -2.4 27.7
17:25 1024 30.24 854 25.22 2.2 35.9 72 -2.3 27.8
17:30 1024 30.24 854 25.22 1.9 35.4 73 -2.5 27.6
17:35 1024 30.24 854 25.22 1.8 35.3 73 -2.6 27.4
17:40 1024 30.24 854 25.22 1.9 35.3 72 -2.7 27.1
17:45 1024 30.24 854 25.22 1.9 35.5 72 -2.7 27.2
17:50 1024 30.24 854 25.22 1.9 35.5 71 -2.7 27.1
17:55 1024 30.24 854 25.22 1.8 35.3 70 -3 26.6
18:00 1024 30.24 854 25.22 1.9 35.5 70 -3.1 26.5
18:05 1024 30.24 854 25.22 2.1 35.7 67 -3.4 26
18:10 1025 30.27 854 25.22 2.2 36 67 -3.3 26.1
18:15 1024 30.24 854 25.22 2.1 35.8 67 -3.4 25.9
18:20 1024 30.24 854 25.22 2.3 36.1 67 -3.2 26.3
18:25 1025 30.27 854 25.22 2.3 36.1 70 -2.7 27.2
18:30 1025 30.27 854 25.22 1.8 35.3 74 -2.3 27.9
18:35 1025 30.27 854 25.22 1.3 34.3 76 -2.6 27.4
18:40 1025 30.27 854 25.22 1.5 34.8 71 -3.1 26.4
18:45 1025 30.27 854 25.22 1.8 35.2 70 -3.2 26.3
18:50 1025 30.27 854 25.22 1.8 35.3 68 -3.5 25.8
18:55 1025 30.27 854 25.22 2 35.7 67 -3.6 25.6
19:00 1025 30.27 854 25.22 2.3 36.1 67 -3.2 26.3
19:05 1025 30.27 854 25.22 2.2 36 68 -3.2 26.3
19:10 1025 30.27 854 25.22 2.1 35.9 68 -3.1 26.4
19:15 1025 30.27 854 25.22 2.2 36 68 -3.1 26.4
19:20 1025 30.27 854 25.22 2.4 36.3 66 -3.4 25.9
19:25 1025 30.27 854 25.22 2.5 36.5 66 -3.3 26.1
19:30 1025 30.27 854 25.22 2.6 36.6 65 -3.4 26
19:35 1025 30.27 854 25.22 2.6 36.7 64 -3.4 25.8
19:40 1025 30.27 854 25.22 2.6 36.7 64 -3.6 25.6
19:45 1025 30.27 854 25.22 2.8 37.1 64 -3.3 26
19:50 1025 30.27 854 25.22 2.7 36.9 63 -3.6 25.6
19:55 1025 30.27 854 25.22 2.8 37.1 64 -3.3 26
20:00 1025 30.27 854 25.22 2.7 36.8 63 -3.6 25.5
20:05 1025 30.27 854 25.22 2.7 36.9 63 -3.6 25.6
20:10 1025 30.27 854 25.22 2.7 36.9 63 -3.6 25.5
20:15 1025 30.27 854 25.22 2.7 36.9 64 -3.5 25.7
20:20 1025 30.27 854 25.22 2.8 37 64 -3.3 26
20:25 1025 30.27 854 25.22 2.7 36.8 65 -3.2 26.3
20:30 1025 30.27 854 25.22 2.6 36.6 65 -3.3 26.1
20:35 1025 30.27 854 25.22 2.7 36.8 64 -3.4 25.9
20:40 1025 30.27 854 25.22 2.8 37 64 -3.4 25.9
20:45 1025 30.27 854 25.22 2.8 37.1 64 -3.3 26
20:50 1025 30.27 854 25.22 2.8 37 64 -3.3 26
20:55 1025 30.27 854 25.22 2.7 36.9 64 -3.4 25.9
21:00 1025 30.27 854 25.22 2.6 36.8 65 -3.3 26
21:05 1025 30.27 854 25.22 2.5 36.5 66 -3.2 26.2
21:10 1025 30.27 854 25.22 2.4 36.3 66 -3.3 26.1
21:15 1025 30.27 854 25.22 2.4 36.3 66 -3.3 26
21:20 1025 30.27 854 25.22 2.4 36.3 66 -3.4 25.9
21:25 1025 30.27 854 25.22 2.4 36.2 66 -3.4 26
21:30 1025 30.27 854 25.22 2.2 36 67 -3.2 26.2
21:35 1025 30.27 854 25.22 2.1 35.7 68 -3.3 26.1
21:40 1025 30.27 854 25.22 2.1 35.7 68 -3.3 26.1
21:45 1025 30.27 854 25.22 2 35.6 69 -3.1 26.4
21:50 1025 30.27 854 25.22 2 35.6 69 -3.2 26.3
21:55 1025 30.27 854 25.22 1.9 35.4 69 -3.2 26.2
22:00 1025 30.27 854 25.22 1.9 35.4 69 -3.2 26.3
22:05 1025 30.27 854 25.22 1.8 35.3 69 -3.2 26.2
22:10 1025 30.27 854 25.22 1.9 35.3 68 -3.4 26
22:15 1025 30.27 854 25.22 2 35.6 68 -3.3 26.1
22:20 1025 30.27 854 25.22 2.1 35.9 67 -3.3 26
22:25 1025 30.27 854 25.22 2.2 35.9 67 -3.3 26.1
22:30 1025 30.27 854 25.22 2.1 35.9 67 -3.3 26.1
22:35 1025 30.27 854 25.22 2.1 35.8 68 -3.1 26.3
22:40 1025 30.27 854 25.22 2 35.7 68 -3.2 26.2
22:45 1025 30.27 854 25.22 2 35.6 68 -3.3 26.1
22:50 1025 30.27 854 25.22 2 35.6 68 -3.3 26.1
22:55 1025 30.27 854 25.22 2.1 35.7 69 -3.1 26.4
23:00 1025 30.27 854 25.22 2.1 35.8 68 -3.3 26.1
23:05 1025 30.27 854 25.22 2.1 35.9 67 -3.3 26.1
23:10 1025 30.27 854 25.22 2.2 35.9 67 -3.4 25.8
23:15 1025 30.27 854 25.22 2.5 36.4 67 -3 26.7
23:20 1025 30.27 854 25.22 2.4 36.4 66 -3.3 26.1
23:25 1025 30.27 854 25.22 2.6 36.7 65 -3.4 25.9
23:30 1025 30.27 854 25.22 2.6 36.7 66 -3.2 26.3
23:35 1025 30.27 854 25.22 2.7 36.8 64 -3.5 25.7
23:40 1025 30.27 854 25.22 2.8 37.1 64 -3.4 25.9
23:45 1025 30.27 854 25.22 2.9 37.2 65 -3.1 26.4
23:50 1025 30.27 854 25.22 2.9 37.2 65 -3.1 26.5
23:55 1025 30.27 854 25.22 2.8 37.1 65 -3.1 26.5
24:00 1025 30.27 855 25.25 2.8 37 65 -3.2 26.2